sensor_id;sensor_type;location;lat;lon;timestamp;P1;durP1;ratioP1;P2;durP2;ratioP2
28304;SDS011;15569;42.652;23.040;2022-07-23T00:01:33;13.82;;;6.60;;
28304;SDS011;15569;42.652;23.040;2022-07-23T00:03:59;13.93;;;7.22;;
28304;SDS011;15569;42.652;23.040;2022-07-23T00:06:25;13.25;;;7.00;;
28304;SDS011;15569;42.652;23.040;2022-07-23T00:08:50;13.68;;;6.43;;
28304;SDS011;15569;42.652;23.040;2022-07-23T00:11:16;19.05;;;7.68;;
28304;SDS011;15569;42.652;23.040;2022-07-23T00:13:42;17.48;;;5.95;;
28304;SDS011;15569;42.652;23.040;2022-07-23T00:16:08;13.23;;;5.90;;
28304;SDS011;15569;42.652;23.040;2022-07-23T00:18:34;11.23;;;5.80;;
28304;SDS011;15569;42.652;23.040;2022-07-23T00:20:59;12.82;;;5.80;;
28304;SDS011;15569;42.652;23.040;2022-07-23T00:23:25;13.05;;;5.97;;
28304;SDS011;15569;42.652;23.040;2022-07-23T00:25:52;11.27;;;5.93;;
28304;SDS011;15569;42.652;23.040;2022-07-23T00:28:18;13.98;;;5.95;;
28304;SDS011;15569;42.652;23.040;2022-07-23T00:30:43;11.27;;;6.05;;
28304;SDS011;15569;42.652;23.040;2022-07-23T00:33:09;10.80;;;6.32;;
28304;SDS011;15569;42.652;23.040;2022-07-23T00:35:35;11.80;;;5.82;;
28304;SDS011;15569;42.652;23.040;2022-07-23T00:38:03;10.90;;;5.75;;
28304;SDS011;15569;42.652;23.040;2022-07-23T00:40:30;15.20;;;6.15;;
28304;SDS011;15569;42.652;23.040;2022-07-23T00:42:55;11.45;;;5.72;;
28304;SDS011;15569;42.652;23.040;2022-07-23T00:45:21;11.15;;;5.55;;
28304;SDS011;15569;42.652;23.040;2022-07-23T00:47:46;9.10;;;5.40;;
28304;SDS011;15569;42.652;23.040;2022-07-23T00:50:12;11.40;;;5.78;;
28304;SDS011;15569;42.652;23.040;2022-07-23T00:52:38;12.90;;;6.22;;
28304;SDS011;15569;42.652;23.040;2022-07-23T00:55:05;9.25;;;5.38;;
28304;SDS011;15569;42.652;23.040;2022-07-23T00:57:31;10.98;;;5.20;;
28304;SDS011;15569;42.652;23.040;2022-07-23T00:59:57;11.20;;;5.45;;
28304;SDS011;15569;42.652;23.040;2022-07-23T01:02:23;9.50;;;4.97;;
28304;SDS011;15569;42.652;23.040;2022-07-23T01:04:49;14.48;;;4.80;;
28304;SDS011;15569;42.652;23.040;2022-07-23T01:07:15;7.68;;;4.80;;
28304;SDS011;15569;42.652;23.040;2022-07-23T01:09:40;8.85;;;4.72;;
28304;SDS011;15569;42.652;23.040;2022-07-23T01:12:07;7.10;;;4.60;;
28304;SDS011;15569;42.652;23.040;2022-07-23T01:14:33;6.55;;;4.85;;
28304;SDS011;15569;42.652;23.040;2022-07-23T01:16:58;10.38;;;5.13;;
28304;SDS011;15569;42.652;23.040;2022-07-23T01:19:23;6.05;;;4.15;;
28304;SDS011;15569;42.652;23.040;2022-07-23T01:21:49;9.43;;;5.03;;
28304;SDS011;15569;42.652;23.040;2022-07-23T01:24:17;9.48;;;4.78;;
28304;SDS011;15569;42.652;23.040;2022-07-23T01:26:46;25.98;;;4.57;;
28304;SDS011;15569;42.652;23.040;2022-07-23T01:29:12;7.97;;;5.13;;
28304;SDS011;15569;42.652;23.040;2022-07-23T01:31:39;8.85;;;4.22;;
28304;SDS011;15569;42.652;23.040;2022-07-23T01:34:05;10.68;;;5.70;;
28304;SDS011;15569;42.652;23.040;2022-07-23T01:36:32;5.72;;;4.10;;
28304;SDS011;15569;42.652;23.040;2022-07-23T01:38:57;8.05;;;4.38;;
28304;SDS011;15569;42.652;23.040;2022-07-23T01:41:23;13.48;;;4.32;;
28304;SDS011;15569;42.652;23.040;2022-07-23T01:43:48;6.90;;;4.70;;
28304;SDS011;15569;42.652;23.040;2022-07-23T01:46:14;5.85;;;4.43;;
28304;SDS011;15569;42.652;23.040;2022-07-23T01:48:39;9.85;;;4.03;;
28304;SDS011;15569;42.652;23.040;2022-07-23T01:51:05;9.85;;;4.25;;
28304;SDS011;15569;42.652;23.040;2022-07-23T01:53:30;8.98;;;5.47;;
28304;SDS011;15569;42.652;23.040;2022-07-23T01:55:59;6.97;;;4.00;;
28304;SDS011;15569;42.652;23.040;2022-07-23T01:58:25;6.95;;;4.15;;
28304;SDS011;15569;42.652;23.040;2022-07-23T02:00:51;10.23;;;4.30;;
28304;SDS011;15569;42.652;23.040;2022-07-23T02:03:17;10.07;;;4.75;;
28304;SDS011;15569;42.652;23.040;2022-07-23T02:05:43;9.75;;;5.10;;
28304;SDS011;15569;42.652;23.040;2022-07-23T02:08:08;8.95;;;4.90;;
28304;SDS011;15569;42.652;23.040;2022-07-23T02:10:33;6.35;;;4.60;;
28304;SDS011;15569;42.652;23.040;2022-07-23T02:12:59;12.43;;;4.85;;
28304;SDS011;15569;42.652;23.040;2022-07-23T02:15:24;10.40;;;4.78;;
28304;SDS011;15569;42.652;23.040;2022-07-23T02:17:50;12.15;;;5.53;;
28304;SDS011;15569;42.652;23.040;2022-07-23T02:20:15;12.63;;;5.00;;
28304;SDS011;15569;42.652;23.040;2022-07-23T02:22:40;11.07;;;5.50;;
28304;SDS011;15569;42.652;23.040;2022-07-23T02:25:06;9.82;;;5.47;;
28304;SDS011;15569;42.652;23.040;2022-07-23T02:27:33;9.00;;;5.05;;
28304;SDS011;15569;42.652;23.040;2022-07-23T02:29:59;11.18;;;5.57;;
28304;SDS011;15569;42.652;23.040;2022-07-23T02:32:24;12.82;;;6.22;;
28304;SDS011;15569;42.652;23.040;2022-07-23T02:34:50;12.10;;;6.53;;
28304;SDS011;15569;42.652;23.040;2022-07-23T02:37:16;13.15;;;6.57;;
28304;SDS011;15569;42.652;23.040;2022-07-23T02:39:41;9.38;;;5.82;;
28304;SDS011;15569;42.652;23.040;2022-07-23T02:42:07;7.97;;;5.50;;
28304;SDS011;15569;42.652;23.040;2022-07-23T02:44:32;14.25;;;7.05;;
28304;SDS011;15569;42.652;23.040;2022-07-23T02:46:58;14.20;;;5.85;;
28304;SDS011;15569;42.652;23.040;2022-07-23T02:49:23;13.18;;;6.18;;
28304;SDS011;15569;42.652;23.040;2022-07-23T02:51:49;13.43;;;6.75;;
28304;SDS011;15569;42.652;23.040;2022-07-23T02:54:14;13.55;;;6.45;;
28304;SDS011;15569;42.652;23.040;2022-07-23T02:56:40;14.70;;;7.13;;
28304;SDS011;15569;42.652;23.040;2022-07-23T02:59:05;13.52;;;7.03;;
28304;SDS011;15569;42.652;23.040;2022-07-23T03:01:31;13.90;;;6.47;;
28304;SDS011;15569;42.652;23.040;2022-07-23T03:03:56;12.98;;;7.13;;
28304;SDS011;15569;42.652;23.040;2022-07-23T03:06:22;14.52;;;7.07;;
28304;SDS011;15569;42.652;23.040;2022-07-23T03:08:47;18.98;;;7.03;;
28304;SDS011;15569;42.652;23.040;2022-07-23T03:11:12;15.35;;;6.32;;
28304;SDS011;15569;42.652;23.040;2022-07-23T03:13:38;15.38;;;7.85;;
28304;SDS011;15569;42.652;23.040;2022-07-23T03:16:05;17.42;;;6.28;;
28304;SDS011;15569;42.652;23.040;2022-07-23T03:18:31;13.02;;;6.10;;
28304;SDS011;15569;42.652;23.040;2022-07-23T03:20:56;16.27;;;7.72;;
28304;SDS011;15569;42.652;23.040;2022-07-23T03:23:22;13.90;;;6.97;;
28304;SDS011;15569;42.652;23.040;2022-07-23T03:25:47;11.52;;;6.47;;
28304;SDS011;15569;42.652;23.040;2022-07-23T03:28:13;26.48;;;19.13;;
28304;SDS011;15569;42.652;23.040;2022-07-23T03:30:40;42.33;;;24.35;;
28304;SDS011;15569;42.652;23.040;2022-07-23T03:33:06;27.20;;;17.85;;
28304;SDS011;15569;42.652;23.040;2022-07-23T03:35:32;25.77;;;17.85;;
28304;SDS011;15569;42.652;23.040;2022-07-23T03:37:57;23.58;;;16.05;;
28304;SDS011;15569;42.652;23.040;2022-07-23T03:40:23;18.25;;;13.88;;
28304;SDS011;15569;42.652;23.040;2022-07-23T03:42:48;23.38;;;14.55;;
28304;SDS011;15569;42.652;23.040;2022-07-23T03:45:13;24.88;;;13.60;;
28304;SDS011;15569;42.652;23.040;2022-07-23T03:47:39;22.52;;;13.52;;
28304;SDS011;15569;42.652;23.040;2022-07-23T03:50:04;22.35;;;13.05;;
28304;SDS011;15569;42.652;23.040;2022-07-23T03:52:30;17.50;;;11.77;;
28304;SDS011;15569;42.652;23.040;2022-07-23T03:54:55;17.75;;;11.25;;
28304;SDS011;15569;42.652;23.040;2022-07-23T03:57:21;21.15;;;11.70;;
28304;SDS011;15569;42.652;23.040;2022-07-23T03:59:46;16.48;;;10.52;;
28304;SDS011;15569;42.652;23.040;2022-07-23T04:02:12;19.58;;;10.70;;
28304;SDS011;15569;42.652;23.040;2022-07-23T04:04:37;21.83;;;10.30;;
28304;SDS011;15569;42.652;23.040;2022-07-23T04:07:03;21.05;;;10.20;;
28304;SDS011;15569;42.652;23.040;2022-07-23T04:09:29;17.50;;;9.60;;
28304;SDS011;15569;42.652;23.040;2022-07-23T04:11:54;19.35;;;8.80;;
28304;SDS011;15569;42.652;23.040;2022-07-23T04:14:19;18.17;;;9.35;;
28304;SDS011;15569;42.652;23.040;2022-07-23T04:16:45;19.17;;;9.18;;
28304;SDS011;15569;42.652;23.040;2022-07-23T04:19:10;11.55;;;7.90;;
28304;SDS011;15569;42.652;23.040;2022-07-23T04:21:36;21.27;;;8.82;;
28304;SDS011;15569;42.652;23.040;2022-07-23T04:24:01;22.90;;;8.13;;
28304;SDS011;15569;42.652;23.040;2022-07-23T04:26:27;21.38;;;7.55;;
28304;SDS011;15569;42.652;23.040;2022-07-23T04:28:52;13.02;;;7.85;;
28304;SDS011;15569;42.652;23.040;2022-07-23T04:31:17;17.02;;;8.40;;
28304;SDS011;15569;42.652;23.040;2022-07-23T04:33:43;17.85;;;8.23;;
28304;SDS011;15569;42.652;23.040;2022-07-23T04:36:08;14.80;;;8.48;;
28304;SDS011;15569;42.652;23.040;2022-07-23T04:38:34;14.10;;;8.57;;
28304;SDS011;15569;42.652;23.040;2022-07-23T04:40:59;14.80;;;8.40;;
28304;SDS011;15569;42.652;23.040;2022-07-23T04:43:25;14.82;;;9.27;;
28304;SDS011;15569;42.652;23.040;2022-07-23T04:45:51;18.40;;;8.00;;
28304;SDS011;15569;42.652;23.040;2022-07-23T04:48:16;15.63;;;7.78;;
28304;SDS011;15569;42.652;23.040;2022-07-23T04:50:41;18.23;;;8.88;;
28304;SDS011;15569;42.652;23.040;2022-07-23T04:53:07;17.60;;;8.48;;
28304;SDS011;15569;42.652;23.040;2022-07-23T04:55:33;17.40;;;8.68;;
28304;SDS011;15569;42.652;23.040;2022-07-23T04:57:58;22.10;;;9.57;;
28304;SDS011;15569;42.652;23.040;2022-07-23T05:00:24;21.25;;;8.55;;
28304;SDS011;15569;42.652;23.040;2022-07-23T05:02:49;19.45;;;9.75;;
28304;SDS011;15569;42.652;23.040;2022-07-23T05:05:14;16.23;;;8.02;;
28304;SDS011;15569;42.652;23.040;2022-07-23T05:07:40;21.55;;;9.40;;
28304;SDS011;15569;42.652;23.040;2022-07-23T05:10:05;17.10;;;8.50;;
28304;SDS011;15569;42.652;23.040;2022-07-23T05:12:31;20.35;;;9.65;;
28304;SDS011;15569;42.652;23.040;2022-07-23T05:14:57;24.10;;;8.95;;
28304;SDS011;15569;42.652;23.040;2022-07-23T05:17:23;18.65;;;9.35;;
28304;SDS011;15569;42.652;23.040;2022-07-23T05:19:48;19.45;;;9.82;;
28304;SDS011;15569;42.652;23.040;2022-07-23T05:22:14;20.23;;;9.60;;
28304;SDS011;15569;42.652;23.040;2022-07-23T05:27:13;25.52;;;9.50;;
28304;SDS011;15569;42.652;23.040;2022-07-23T05:29:39;21.08;;;9.88;;
28304;SDS011;15569;42.652;23.040;2022-07-23T05:32:04;28.50;;;9.93;;
28304;SDS011;15569;42.652;23.040;2022-07-23T05:34:30;20.70;;;9.38;;
28304;SDS011;15569;42.652;23.040;2022-07-23T05:36:55;30.65;;;10.40;;
28304;SDS011;15569;42.652;23.040;2022-07-23T05:39:21;19.08;;;8.57;;
28304;SDS011;15569;42.652;23.040;2022-07-23T05:41:46;30.30;;;9.40;;
28304;SDS011;15569;42.652;23.040;2022-07-23T05:44:11;24.35;;;8.98;;
28304;SDS011;15569;42.652;23.040;2022-07-23T05:46:37;24.02;;;8.82;;
28304;SDS011;15569;42.652;23.040;2022-07-23T05:49:02;20.98;;;9.02;;
28304;SDS011;15569;42.652;23.040;2022-07-23T05:51:28;21.25;;;8.35;;
28304;SDS011;15569;42.652;23.040;2022-07-23T05:53:53;25.45;;;8.25;;
28304;SDS011;15569;42.652;23.040;2022-07-23T05:56:18;24.92;;;8.05;;
28304;SDS011;15569;42.652;23.040;2022-07-23T05:58:44;17.73;;;8.68;;
28304;SDS011;15569;42.652;23.040;2022-07-23T06:01:10;18.48;;;8.00;;
28304;SDS011;15569;42.652;23.040;2022-07-23T06:03:36;21.77;;;6.93;;
28304;SDS011;15569;42.652;23.040;2022-07-23T06:06:02;20.10;;;7.35;;
28304;SDS011;15569;42.652;23.040;2022-07-23T06:08:28;19.40;;;8.88;;
28304;SDS011;15569;42.652;23.040;2022-07-23T06:10:53;24.90;;;8.43;;
28304;SDS011;15569;42.652;23.040;2022-07-23T06:13:19;21.88;;;7.22;;
28304;SDS011;15569;42.652;23.040;2022-07-23T06:15:44;23.65;;;7.85;;
28304;SDS011;15569;42.652;23.040;2022-07-23T06:18:10;20.75;;;7.18;;
28304;SDS011;15569;42.652;23.040;2022-07-23T06:20:35;20.58;;;8.77;;
28304;SDS011;15569;42.652;23.040;2022-07-23T06:23:01;31.65;;;8.43;;
28304;SDS011;15569;42.652;23.040;2022-07-23T06:25:26;28.95;;;8.73;;
28304;SDS011;15569;42.652;23.040;2022-07-23T06:27:52;19.10;;;7.15;;
28304;SDS011;15569;42.652;23.040;2022-07-23T06:30:17;33.15;;;7.35;;
28304;SDS011;15569;42.652;23.040;2022-07-23T06:32:44;21.50;;;6.18;;
28304;SDS011;15569;42.652;23.040;2022-07-23T06:35:12;16.90;;;7.07;;
28304;SDS011;15569;42.652;23.040;2022-07-23T06:37:38;15.70;;;6.72;;
28304;SDS011;15569;42.652;23.040;2022-07-23T06:40:03;17.77;;;7.28;;
28304;SDS011;15569;42.652;23.040;2022-07-23T06:42:29;24.95;;;7.50;;
28304;SDS011;15569;42.652;23.040;2022-07-23T06:44:55;22.42;;;7.80;;
28304;SDS011;15569;42.652;23.040;2022-07-23T06:47:20;17.27;;;6.97;;
28304;SDS011;15569;42.652;23.040;2022-07-23T06:49:46;11.10;;;6.68;;
28304;SDS011;15569;42.652;23.040;2022-07-23T06:52:11;29.17;;;6.32;;
28304;SDS011;15569;42.652;23.040;2022-07-23T06:54:36;12.40;;;7.53;;
28304;SDS011;15569;42.652;23.040;2022-07-23T06:57:02;13.98;;;6.38;;
28304;SDS011;15569;42.652;23.040;2022-07-23T06:59:27;17.98;;;7.20;;
28304;SDS011;15569;42.652;23.040;2022-07-23T07:01:53;16.85;;;6.25;;
28304;SDS011;15569;42.652;23.040;2022-07-23T07:04:18;21.30;;;6.40;;
28304;SDS011;15569;42.652;23.040;2022-07-23T07:06:44;9.80;;;6.07;;
28304;SDS011;15569;42.652;23.040;2022-07-23T07:09:09;21.83;;;6.95;;
28304;SDS011;15569;42.652;23.040;2022-07-23T07:11:35;20.30;;;6.00;;
28304;SDS011;15569;42.652;23.040;2022-07-23T07:14:00;22.58;;;6.25;;
28304;SDS011;15569;42.652;23.040;2022-07-23T07:16:26;17.85;;;6.05;;
28304;SDS011;15569;42.652;23.040;2022-07-23T07:18:51;10.70;;;5.47;;
28304;SDS011;15569;42.652;23.040;2022-07-23T07:21:16;15.00;;;6.38;;
28304;SDS011;15569;42.652;23.040;2022-07-23T07:23:42;12.75;;;5.43;;
28304;SDS011;15569;42.652;23.040;2022-07-23T07:26:07;13.80;;;5.60;;
28304;SDS011;15569;42.652;23.040;2022-07-23T07:28:33;14.93;;;5.80;;
28304;SDS011;15569;42.652;23.040;2022-07-23T07:30:58;14.38;;;6.55;;
28304;SDS011;15569;42.652;23.040;2022-07-23T07:33:24;13.70;;;4.78;;
28304;SDS011;15569;42.652;23.040;2022-07-23T07:35:49;17.55;;;5.53;;
28304;SDS011;15569;42.652;23.040;2022-07-23T07:38:15;10.93;;;6.03;;
28304;SDS011;15569;42.652;23.040;2022-07-23T07:40:40;21.25;;;5.28;;
28304;SDS011;15569;42.652;23.040;2022-07-23T08:03:47;12.48;;;5.53;;
28304;SDS011;15569;42.652;23.040;2022-07-23T08:06:12;8.48;;;5.75;;
28304;SDS011;15569;42.652;23.040;2022-07-23T08:08:38;8.80;;;5.55;;
28304;SDS011;15569;42.652;23.040;2022-07-23T08:11:03;11.50;;;5.35;;
28304;SDS011;15569;42.652;23.040;2022-07-23T08:13:28;10.57;;;4.57;;
28304;SDS011;15569;42.652;23.040;2022-07-23T08:15:54;10.57;;;5.00;;
28304;SDS011;15569;42.652;23.040;2022-07-23T08:18:19;24.48;;;5.43;;
28304;SDS011;15569;42.652;23.040;2022-07-23T08:20:45;11.35;;;5.03;;
28304;SDS011;15569;42.652;23.040;2022-07-23T08:23:10;17.15;;;6.05;;
28304;SDS011;15569;42.652;23.040;2022-07-23T08:25:45;7.78;;;5.10;;
28304;SDS011;15569;42.652;23.040;2022-07-23T08:28:12;9.77;;;5.07;;
28304;SDS011;15569;42.652;23.040;2022-07-23T08:30:38;15.20;;;6.00;;
28304;SDS011;15569;42.652;23.040;2022-07-23T08:33:06;10.75;;;5.10;;
28304;SDS011;15569;42.652;23.040;2022-07-23T08:35:46;19.60;;;5.32;;
28304;SDS011;15569;42.652;23.040;2022-07-23T08:38:14;8.77;;;5.43;;
28304;SDS011;15569;42.652;23.040;2022-07-23T08:40:41;13.27;;;4.53;;
28304;SDS011;15569;42.652;23.040;2022-07-23T08:43:12;23.25;;;7.75;;
28304;SDS011;15569;42.652;23.040;2022-07-23T08:45:43;22.15;;;10.88;;
28304;SDS011;15569;42.652;23.040;2022-07-23T08:48:14;27.63;;;10.80;;
28304;SDS011;15569;42.652;23.040;2022-07-23T08:50:42;39.65;;;12.65;;
28304;SDS011;15569;42.652;23.040;2022-07-23T08:53:09;32.55;;;12.07;;
28304;SDS011;15569;42.652;23.040;2022-07-23T08:55:34;50.20;;;17.98;;
28304;SDS011;15569;42.652;23.040;2022-07-23T08:58:00;26.73;;;9.00;;
28304;SDS011;15569;42.652;23.040;2022-07-23T09:00:26;13.73;;;7.07;;
28304;SDS011;15569;42.652;23.040;2022-07-23T09:02:51;14.57;;;6.60;;
28304;SDS011;15569;42.652;23.040;2022-07-23T09:05:17;8.68;;;5.15;;
28304;SDS011;15569;42.652;23.040;2022-07-23T09:10:45;22.10;;;8.55;;
28304;SDS011;15569;42.652;23.040;2022-07-23T09:15:48;13.38;;;5.75;;
28304;SDS011;15569;42.652;23.040;2022-07-23T09:18:15;31.45;;;9.88;;
28304;SDS011;15569;42.652;23.040;2022-07-23T09:20:41;131.95;;;35.38;;
28304;SDS011;15569;42.652;23.040;2022-07-23T09:23:08;38.85;;;12.82;;
28304;SDS011;15569;42.652;23.040;2022-07-23T09:25:33;75.78;;;25.42;;
28304;SDS011;15569;42.652;23.040;2022-07-23T09:27:59;22.27;;;5.25;;
28304;SDS011;15569;42.652;23.040;2022-07-23T09:33:10;12.35;;;5.18;;
28304;SDS011;15569;42.652;23.040;2022-07-23T09:38:08;15.35;;;6.13;;
28304;SDS011;15569;42.652;23.040;2022-07-23T09:40:34;9.45;;;4.28;;
28304;SDS011;15569;42.652;23.040;2022-07-23T09:42:59;7.75;;;4.95;;
28304;SDS011;15569;42.652;23.040;2022-07-23T09:45:25;9.52;;;4.60;;
28304;SDS011;15569;42.652;23.040;2022-07-23T09:47:50;7.65;;;4.68;;
28304;SDS011;15569;42.652;23.040;2022-07-23T09:50:16;9.43;;;4.93;;
28304;SDS011;15569;42.652;23.040;2022-07-23T09:52:46;8.75;;;4.25;;
28304;SDS011;15569;42.652;23.040;2022-07-23T09:55:13;12.23;;;4.90;;
28304;SDS011;15569;42.652;23.040;2022-07-23T09:57:42;7.78;;;4.03;;
28304;SDS011;15569;42.652;23.040;2022-07-23T10:00:15;11.55;;;5.47;;
28304;SDS011;15569;42.652;23.040;2022-07-23T10:02:40;11.07;;;4.13;;
28304;SDS011;15569;42.652;23.040;2022-07-23T10:05:06;5.72;;;3.75;;
28304;SDS011;15569;42.652;23.040;2022-07-23T10:07:34;5.75;;;4.53;;
28304;SDS011;15569;42.652;23.040;2022-07-23T10:10:02;12.07;;;4.03;;
28304;SDS011;15569;42.652;23.040;2022-07-23T10:12:30;10.25;;;4.53;;
28304;SDS011;15569;42.652;23.040;2022-07-23T10:17:30;4.82;;;3.63;;
28304;SDS011;15569;42.652;23.040;2022-07-23T10:19:56;7.70;;;3.47;;
28304;SDS011;15569;42.652;23.040;2022-07-23T10:22:25;9.50;;;4.25;;
28304;SDS011;15569;42.652;23.040;2022-07-23T10:27:39;19.42;;;4.53;;
28304;SDS011;15569;42.652;23.040;2022-07-23T10:32:45;10.07;;;4.13;;
28304;SDS011;15569;42.652;23.040;2022-07-23T10:35:26;9.05;;;3.75;;
28304;SDS011;15569;42.652;23.040;2022-07-23T10:38:02;10.80;;;4.47;;
28304;SDS011;15569;42.652;23.040;2022-07-23T10:40:36;5.85;;;3.45;;
28304;SDS011;15569;42.652;23.040;2022-07-23T10:43:01;11.07;;;4.20;;
28304;SDS011;15569;42.652;23.040;2022-07-23T10:45:37;10.02;;;3.85;;
28304;SDS011;15569;42.652;23.040;2022-07-23T10:48:19;13.73;;;4.40;;
28304;SDS011;15569;42.652;23.040;2022-07-23T10:56:14;11.82;;;4.15;;
28304;SDS011;15569;42.652;23.040;2022-07-23T11:04:06;12.60;;;4.15;;
28304;SDS011;15569;42.652;23.040;2022-07-23T11:09:26;7.38;;;3.67;;
28304;SDS011;15569;42.652;23.040;2022-07-23T11:17:22;12.95;;;4.13;;
28304;SDS011;15569;42.652;23.040;2022-07-23T11:22:36;7.32;;;4.28;;
28304;SDS011;15569;42.652;23.040;2022-07-23T11:25:02;10.90;;;4.17;;
28304;SDS011;15569;42.652;23.040;2022-07-23T11:27:44;17.23;;;4.30;;
28304;SDS011;15569;42.652;23.040;2022-07-23T11:30:56;15.98;;;4.60;;
28304;SDS011;15569;42.652;23.040;2022-07-23T11:35:34;8.55;;;4.03;;
28304;SDS011;15569;42.652;23.040;2022-07-23T11:38:05;7.10;;;3.78;;
28304;SDS011;15569;42.652;23.040;2022-07-23T11:40:32;15.25;;;4.05;;
28304;SDS011;15569;42.652;23.040;2022-07-23T11:43:02;12.70;;;3.95;;
28304;SDS011;15569;42.652;23.040;2022-07-23T11:48:00;13.18;;;4.15;;
28304;SDS011;15569;42.652;23.040;2022-07-23T11:50:25;13.95;;;4.10;;
28304;SDS011;15569;42.652;23.040;2022-07-23T11:52:51;13.02;;;4.20;;
28304;SDS011;15569;42.652;23.040;2022-07-23T11:55:18;13.25;;;4.88;;
28304;SDS011;15569;42.652;23.040;2022-07-23T11:57:44;11.82;;;3.95;;
28304;SDS011;15569;42.652;23.040;2022-07-23T12:00:11;7.32;;;3.55;;
28304;SDS011;15569;42.652;23.040;2022-07-23T12:02:40;11.77;;;3.50;;
28304;SDS011;15569;42.652;23.040;2022-07-23T12:05:08;14.70;;;3.88;;
28304;SDS011;15569;42.652;23.040;2022-07-23T12:07:38;14.20;;;4.07;;
28304;SDS011;15569;42.652;23.040;2022-07-23T12:10:09;7.60;;;4.10;;
28304;SDS011;15569;42.652;23.040;2022-07-23T12:12:43;8.00;;;3.95;;
28304;SDS011;15569;42.652;23.040;2022-07-23T12:15:11;10.20;;;3.95;;
28304;SDS011;15569;42.652;23.040;2022-07-23T12:17:39;8.15;;;3.65;;
28304;SDS011;15569;42.652;23.040;2022-07-23T12:20:07;13.38;;;3.88;;
28304;SDS011;15569;42.652;23.040;2022-07-23T12:22:36;15.77;;;4.03;;
28304;SDS011;15569;42.652;23.040;2022-07-23T12:25:11;10.68;;;3.55;;
28304;SDS011;15569;42.652;23.040;2022-07-23T12:27:38;10.02;;;3.50;;
28304;SDS011;15569;42.652;23.040;2022-07-23T12:30:16;12.93;;;3.63;;
28304;SDS011;15569;42.652;23.040;2022-07-23T12:32:44;12.50;;;3.60;;
28304;SDS011;15569;42.652;23.040;2022-07-23T12:35:10;15.73;;;4.15;;
28304;SDS011;15569;42.652;23.040;2022-07-23T12:37:37;12.48;;;3.75;;
28304;SDS011;15569;42.652;23.040;2022-07-23T12:40:24;16.80;;;3.85;;
28304;SDS011;15569;42.652;23.040;2022-07-23T12:42:55;12.48;;;4.22;;
28304;SDS011;15569;42.652;23.040;2022-07-23T12:45:27;9.38;;;3.35;;
28304;SDS011;15569;42.652;23.040;2022-07-23T12:47:55;8.45;;;3.65;;
28304;SDS011;15569;42.652;23.040;2022-07-23T12:50:36;10.52;;;4.43;;
28304;SDS011;15569;42.652;23.040;2022-07-23T12:53:30;13.65;;;4.45;;
28304;SDS011;15569;42.652;23.040;2022-07-23T12:56:09;12.57;;;4.45;;
28304;SDS011;15569;42.652;23.040;2022-07-23T13:01:07;8.00;;;3.70;;
28304;SDS011;15569;42.652;23.040;2022-07-23T13:03:34;16.33;;;4.57;;
28304;SDS011;15569;42.652;23.040;2022-07-23T13:06:06;9.60;;;3.85;;
28304;SDS011;15569;42.652;23.040;2022-07-23T13:08:33;13.13;;;4.78;;
28304;SDS011;15569;42.652;23.040;2022-07-23T13:11:00;15.85;;;4.53;;
28304;SDS011;15569;42.652;23.040;2022-07-23T13:13:27;16.17;;;5.03;;
28304;SDS011;15569;42.652;23.040;2022-07-23T13:15:53;14.73;;;4.68;;
28304;SDS011;15569;42.652;23.040;2022-07-23T13:18:19;17.20;;;6.05;;
28304;SDS011;15569;42.652;23.040;2022-07-23T13:20:46;11.13;;;6.05;;
28304;SDS011;15569;42.652;23.040;2022-07-23T13:23:12;9.10;;;4.22;;
28304;SDS011;15569;42.652;23.040;2022-07-23T13:25:38;11.43;;;4.28;;
28304;SDS011;15569;42.652;23.040;2022-07-23T13:28:04;7.55;;;4.53;;
28304;SDS011;15569;42.652;23.040;2022-07-23T13:30:30;9.07;;;4.70;;
28304;SDS011;15569;42.652;23.040;2022-07-23T13:32:55;8.10;;;4.18;;
28304;SDS011;15569;42.652;23.040;2022-07-23T13:35:21;9.13;;;4.07;;
28304;SDS011;15569;42.652;23.040;2022-07-23T13:37:46;8.90;;;4.03;;
28304;SDS011;15569;42.652;23.040;2022-07-23T13:40:12;12.02;;;4.55;;
28304;SDS011;15569;42.652;23.040;2022-07-23T13:42:38;20.05;;;5.95;;
28304;SDS011;15569;42.652;23.040;2022-07-23T13:45:04;11.68;;;4.25;;
28304;SDS011;15569;42.652;23.040;2022-07-23T13:47:30;13.98;;;5.65;;
28304;SDS011;15569;42.652;23.040;2022-07-23T13:49:56;10.52;;;4.68;;
28304;SDS011;15569;42.652;23.040;2022-07-23T13:52:21;15.23;;;6.65;;
28304;SDS011;15569;42.652;23.040;2022-07-23T13:54:47;15.88;;;5.38;;
28304;SDS011;15569;42.652;23.040;2022-07-23T13:57:12;7.13;;;4.05;;
28304;SDS011;15569;42.652;23.040;2022-07-23T13:59:38;13.98;;;5.38;;
28304;SDS011;15569;42.652;23.040;2022-07-23T14:02:04;12.63;;;4.95;;
28304;SDS011;15569;42.652;23.040;2022-07-23T14:04:30;11.73;;;4.15;;
28304;SDS011;15569;42.652;23.040;2022-07-23T14:06:55;13.70;;;4.03;;
28304;SDS011;15569;42.652;23.040;2022-07-23T14:09:21;11.88;;;6.45;;
28304;SDS011;15569;42.652;23.040;2022-07-23T14:11:47;6.10;;;3.85;;
28304;SDS011;15569;42.652;23.040;2022-07-23T14:14:13;9.50;;;3.70;;
28304;SDS011;15569;42.652;23.040;2022-07-23T14:16:38;11.55;;;3.72;;
28304;SDS011;15569;42.652;23.040;2022-07-23T14:19:04;16.55;;;4.32;;
28304;SDS011;15569;42.652;23.040;2022-07-23T14:21:29;11.60;;;4.28;;
28304;SDS011;15569;42.652;23.040;2022-07-23T14:23:55;17.13;;;4.30;;
28304;SDS011;15569;42.652;23.040;2022-07-23T14:26:20;7.50;;;4.60;;
28304;SDS011;15569;42.652;23.040;2022-07-23T14:28:46;10.30;;;4.72;;
28304;SDS011;15569;42.652;23.040;2022-07-23T14:31:11;7.82;;;4.10;;
28304;SDS011;15569;42.652;23.040;2022-07-23T14:33:37;10.60;;;4.22;;
28304;SDS011;15569;42.652;23.040;2022-07-23T14:36:02;14.23;;;4.97;;
28304;SDS011;15569;42.652;23.040;2022-07-23T14:38:28;8.35;;;4.20;;
28304;SDS011;15569;42.652;23.040;2022-07-23T14:40:55;13.13;;;4.20;;
28304;SDS011;15569;42.652;23.040;2022-07-23T14:43:21;9.07;;;3.67;;
28304;SDS011;15569;42.652;23.040;2022-07-23T14:45:46;15.60;;;4.50;;
28304;SDS011;15569;42.652;23.040;2022-07-23T14:48:12;9.52;;;5.15;;
28304;SDS011;15569;42.652;23.040;2022-07-23T14:50:37;6.85;;;4.03;;
28304;SDS011;15569;42.652;23.040;2022-07-23T14:53:03;14.52;;;4.00;;
28304;SDS011;15569;42.652;23.040;2022-07-23T14:55:30;6.65;;;3.70;;
28304;SDS011;15569;42.652;23.040;2022-07-23T14:57:56;13.77;;;4.55;;
28304;SDS011;15569;42.652;23.040;2022-07-23T15:00:21;8.13;;;4.55;;
28304;SDS011;15569;42.652;23.040;2022-07-23T15:02:47;8.02;;;3.58;;
28304;SDS011;15569;42.652;23.040;2022-07-23T15:05:12;12.00;;;4.07;;
28304;SDS011;15569;42.652;23.040;2022-07-23T15:07:38;8.00;;;4.13;;
28304;SDS011;15569;42.652;23.040;2022-07-23T15:10:03;12.35;;;4.03;;
28304;SDS011;15569;42.652;23.040;2022-07-23T15:12:29;11.35;;;4.75;;
28304;SDS011;15569;42.652;23.040;2022-07-23T15:14:54;9.32;;;4.07;;
28304;SDS011;15569;42.652;23.040;2022-07-23T15:17:20;9.77;;;4.63;;
28304;SDS011;15569;42.652;23.040;2022-07-23T15:19:45;12.90;;;5.13;;
28304;SDS011;15569;42.652;23.040;2022-07-23T15:22:11;13.45;;;4.32;;
28304;SDS011;15569;42.652;23.040;2022-07-23T15:24:37;15.63;;;5.07;;
28304;SDS011;15569;42.652;23.040;2022-07-23T15:27:02;15.25;;;4.57;;
28304;SDS011;15569;42.652;23.040;2022-07-23T15:29:28;11.27;;;4.15;;
28304;SDS011;15569;42.652;23.040;2022-07-23T15:31:53;13.88;;;5.43;;